Time;durP1;ratioP1;P1;durP2;ratioP2;P2;SDS_P1;SDS_P2;PMS_P1;PMS_P2;Temp;Humidity;BMP_temperature;BMP_pressure;BME280_temperature;BME280_humidity;BME280_pressure;Samples;Min_cycle;Max_cycle;Signal;HPM_P1;HPM_P2
2022/11/02 00:00:54;;;;;;;10.77;6.82;;;16.20;96.70;;;;;;4946833;28;20054;-72
2022/11/02 00:03:24;;;;;;;12.00;6.80;;;16.20;96.70;;;;;;4928007;28;20085;-71
2022/11/02 00:05:52;;;;;;;10.50;7.43;;;16.10;96.70;;;;;;4927155;28;20165;-71
2022/11/02 00:08:20;;;;;;;12.02;7.05;;;16.00;96.70;;;;;;4932322;28;20128;-72
2022/11/02 00:10:48;;;;;;;11.85;6.85;;;15.90;96.70;;;;;;4936727;28;20055;-72
2022/11/02 00:13:19;;;;;;;11.45;7.72;;;16.00;96.70;;;;;;4941999;28;20054;-72
2022/11/02 00:15:47;;;;;;;9.55;6.43;;;16.10;96.70;;;;;;4945123;28;20054;-71
2022/11/02 00:18:15;;;;;;;12.82;7.40;;;16.10;96.70;;;;;;4928227;28;20473;-71
2022/11/02 00:20:44;;;;;;;12.13;6.63;;;16.10;96.70;;;;;;4928767;28;20187;-72
2022/11/02 00:23:14;;;;;;;9.48;6.30;;;16.00;96.70;;;;;;4928651;28;20532;-71
2022/11/02 00:25:45;;;;;;;9.60;6.30;;;16.00;96.70;;;;;;4940471;29;20552;-71
2022/11/02 00:28:14;;;;;;;9.98;5.93;;;15.90;96.70;;;;;;4935395;29;20568;-71
2022/11/02 00:30:42;;;;;;;10.45;5.88;;;15.80;96.70;;;;;;4912253;28;20043;-72
2022/11/02 00:33:11;;;;;;;10.30;6.50;;;15.90;96.70;;;;;;4930588;28;20406;-72
2022/11/02 00:35:40;;;;;;;9.75;5.93;;;15.80;96.70;;;;;;4937215;29;20126;-72
2022/11/02 00:38:09;;;;;;;9.43;5.32;;;15.80;96.70;;;;;;4953550;28;20039;-71
2022/11/02 00:40:37;;;;;;;7.97;5.30;;;15.90;96.70;;;;;;4937134;29;20525;-72
2022/11/02 00:43:05;;;;;;;9.27;5.57;;;15.90;96.70;;;;;;4918598;28;20556;-72
2022/11/02 00:45:33;;;;;;;7.32;5.15;;;16.00;96.70;;;;;;4927977;28;20043;-72
2022/11/02 00:48:03;;;;;;;8.20;5.30;;;15.90;96.70;;;;;;4929075;28;20458;-72
2022/11/02 00:50:31;;;;;;;7.85;5.20;;;15.90;96.70;;;;;;4927548;29;20070;-71
2022/11/02 00:52:59;;;;;;;9.63;4.80;;;15.90;96.70;;;;;;4928433;29;20763;-71
2022/11/02 00:55:29;;;;;;;6.90;4.35;;;15.90;96.70;;;;;;4937836;29;20522;-71
2022/11/02 00:58:01;;;;;;;6.53;4.70;;;15.90;96.70;;;;;;4938237;28;20502;-73
2022/11/02 01:00:30;;;;;;;8.30;4.40;;;15.80;96.70;;;;;;4937711;29;20054;-71
2022/11/02 01:03:00;;;;;;;6.20;4.45;;;15.70;96.70;;;;;;4931479;29;20058;-72
2022/11/02 01:05:29;;;;;;;6.57;4.45;;;15.70;96.70;;;;;;4932428;28;20047;-72
2022/11/02 01:07:57;;;;;;;7.90;4.60;;;15.70;96.70;;;;;;4930412;28;20102;-71
2022/11/02 01:10:26;;;;;;;6.82;4.05;;;15.60;96.70;;;;;;4939686;28;20528;-72
2022/11/02 01:12:55;;;;;;;10.57;4.35;;;15.70;96.70;;;;;;4932247;28;20038;-71
2022/11/02 01:15:23;;;;;;;6.10;4.15;;;15.70;96.70;;;;;;4954938;28;20464;-72
2022/11/02 01:17:51;;;;;;;6.50;4.30;;;15.70;96.70;;;;;;4967060;28;20042;-71
2022/11/02 01:20:20;;;;;;;6.90;4.30;;;15.50;96.70;;;;;;4931498;28;20138;-72
2022/11/02 01:22:47;;;;;;;10.93;4.53;;;15.50;96.70;;;;;;4933514;28;20488;-72
2022/11/02 01:25:16;;;;;;;6.15;3.60;;;15.50;96.70;;;;;;4972353;28;20058;-71
2022/11/02 01:27:44;;;;;;;6.00;4.20;;;15.50;96.70;;;;;;4964133;28;20047;-71
2022/11/02 01:30:14;;;;;;;7.40;3.90;;;15.50;96.70;;;;;;4951834;28;20067;-72
2022/11/02 01:32:43;;;;;;;6.70;3.92;;;15.50;96.70;;;;;;4954376;28;20835;-71
2022/11/02 01:35:12;;;;;;;8.65;4.45;;;15.60;96.70;;;;;;4957067;28;20049;-71
2022/11/02 01:37:40;;;;;;;6.25;4.22;;;15.50;96.70;;;;;;4958721;28;20055;-72
2022/11/02 01:40:09;;;;;;;6.60;4.60;;;15.50;96.70;;;;;;4948766;28;20051;-71
2022/11/02 01:42:37;;;;;;;6.18;4.32;;;15.40;96.70;;;;;;4931557;29;20520;-71
2022/11/02 01:45:06;;;;;;;8.32;4.38;;;15.30;96.70;;;;;;4920004;28;20074;-71
2022/11/02 01:47:39;;;;;;;7.05;4.60;;;15.20;96.70;;;;;;4938122;28;20054;-71
2022/11/02 01:50:11;;;;;;;7.45;4.40;;;15.20;96.70;;;;;;4948866;28;20058;-71
2022/11/02 01:52:40;;;;;;;8.23;4.80;;;15.20;96.70;;;;;;4930619;29;20043;-72
2022/11/02 01:55:15;;;;;;;9.18;4.65;;;15.20;96.70;;;;;;4927153;29;20043;-72
2022/11/02 01:57:47;;;;;;;6.32;4.25;;;15.20;96.70;;;;;;4931965;29;20054;-71
2022/11/02 02:00:18;;;;;;;7.40;4.63;;;15.10;96.70;;;;;;4933330;28;20051;-72
2022/11/02 02:02:53;;;;;;;8.65;4.80;;;15.20;96.70;;;;;;4944270;28;20126;-72
2022/11/02 02:05:23;;;;;;;7.70;4.93;;;15.20;96.70;;;;;;4948661;28;20043;-71
2022/11/02 02:07:52;;;;;;;6.72;4.75;;;15.30;96.70;;;;;;4932109;29;20058;-72
2022/11/02 02:10:20;;;;;;;8.25;4.70;;;15.30;96.70;;;;;;4932112;28;20502;-72
2022/11/02 02:12:49;;;;;;;10.13;4.55;;;15.30;96.70;;;;;;4930383;28;20564;-71
2022/11/02 02:15:21;;;;;;;7.18;4.30;;;15.30;96.70;;;;;;4931349;28;20102;-71
2022/11/02 02:17:58;;;;;;;8.88;4.93;;;15.30;96.70;;;;;;4914759;28;20055;-71
2022/11/02 02:20:45;;;;;;;6.53;4.45;;;15.30;96.70;;;;;;4931961;28;20080;-72
2022/11/02 02:23:36;;;;;;;9.15;4.40;;;15.20;96.70;;;;;;4933139;28;20139;-72
2022/11/02 02:26:36;;;;;;;8.75;4.70;;;15.20;96.70;;;;;;4929971;28;20062;-72
2022/11/02 02:29:18;;;;;;;6.78;4.63;;;15.20;96.70;;;;;;4957891;28;20059;-72
2022/11/02 02:31:55;;;;;;;8.00;4.25;;;15.20;96.70;;;;;;4956095;28;20066;-72
2022/11/02 02:34:29;;;;;;;7.22;4.57;;;15.00;96.70;;;;;;4925212;28;20058;-72
2022/11/02 02:37:05;;;;;;;6.90;4.50;;;14.90;96.70;;;;;;4947557;28;20047;-71
2022/11/02 02:39:42;;;;;;;5.20;4.27;;;14.80;96.70;;;;;;4943075;28;20054;-72
2022/11/02 02:42:16;;;;;;;6.15;4.40;;;14.80;96.70;;;;;;4921224;28;20501;-71
2022/11/02 02:44:57;;;;;;;7.53;4.68;;;14.80;96.70;;;;;;4915417;28;20734;-71
2022/11/02 02:47:28;;;;;;;7.15;5.13;;;14.70;96.70;;;;;;4947439;28;20051;-71
2022/11/02 02:50:04;;;;;;;6.22;3.90;;;14.70;96.70;;;;;;4913899;28;20623;-71
2022/11/02 02:52:34;;;;;;;9.18;4.60;;;14.60;96.70;;;;;;4930360;28;20058;-71
2022/11/02 02:55:06;;;;;;;7.57;4.45;;;14.60;96.70;;;;;;4935979;29;20115;-72
2022/11/02 02:57:39;;;;;;;10.45;5.30;;;14.60;96.70;;;;;;4930680;29;20047;-71
2022/11/02 03:00:16;;;;;;;8.93;4.60;;;14.70;96.70;;;;;;4926292;29;20054;-72
2022/11/02 03:03:02;;;;;;;7.40;4.50;;;14.80;96.70;;;;;;4934918;28;20617;-71
2022/11/02 03:05:33;;;;;;;5.95;4.60;;;14.80;96.70;;;;;;4943232;28;20046;-71
2022/11/02 03:08:07;;;;;;;7.80;5.10;;;14.70;96.70;;;;;;4927590;28;20166;-72
2022/11/02 03:10:45;;;;;;;7.47;5.03;;;14.80;96.70;;;;;;4921731;28;20149;-71
2022/11/02 03:13:30;;;;;;;6.90;4.60;;;14.80;96.70;;;;;;4933612;29;20051;-72
2022/11/02 03:16:06;;;;;;;6.35;4.88;;;14.80;96.70;;;;;;4913796;29;20505;-72
2022/11/02 03:18:45;;;;;;;7.38;4.90;;;14.80;96.70;;;;;;4930307;28;20044;-72
2022/11/02 03:21:31;;;;;;;7.22;4.93;;;14.90;96.70;;;;;;4947951;28;20497;-72
2022/11/02 03:24:06;;;;;;;9.80;5.32;;;14.90;96.70;;;;;;4918210;29;20227;-72
2022/11/02 03:26:45;;;;;;;7.63;5.40;;;14.90;96.70;;;;;;4929984;28;20470;-71
2022/11/02 03:29:18;;;;;;;10.48;4.97;;;14.80;96.70;;;;;;4949166;28;20048;-71
2022/11/02 03:31:55;;;;;;;6.32;4.93;;;14.80;96.70;;;;;;4936487;28;20087;-72
2022/11/02 03:34:27;;;;;;;7.00;5.23;;;14.70;96.70;;;;;;4948208;28;20051;-71
2022/11/02 03:37:02;;;;;;;8.00;4.80;;;14.60;96.70;;;;;;4947114;28;20065;-72
2022/11/02 03:39:37;;;;;;;9.13;5.05;;;14.60;96.70;;;;;;4948788;28;20062;-72
2022/11/02 03:42:08;;;;;;;7.38;5.55;;;14.60;96.70;;;;;;4939175;28;20059;-71
2022/11/02 03:44:38;;;;;;;6.78;4.72;;;14.70;96.70;;;;;;4932974;28;20145;-71
2022/11/02 03:47:15;;;;;;;8.27;4.78;;;14.70;96.70;;;;;;4929762;28;20501;-72
2022/11/02 03:49:45;;;;;;;7.45;5.32;;;14.80;96.70;;;;;;4928005;29;20133;-72
2022/11/02 03:52:20;;;;;;;6.60;4.47;;;14.80;96.70;;;;;;4937747;29;20082;-72
2022/11/02 03:54:57;;;;;;;6.85;4.90;;;14.70;96.70;;;;;;4946261;28;20054;-71
2022/11/02 03:57:31;;;;;;;5.72;4.22;;;14.70;96.70;;;;;;4913307;29;20079;-72
2022/11/02 04:00:07;;;;;;;7.15;5.18;;;14.70;96.70;;;;;;4929776;29;20051;-72
2022/11/02 04:02:46;;;;;;;7.47;4.95;;;14.80;96.70;;;;;;4946114;28;20134;-72
2022/11/02 04:05:15;;;;;;;6.65;4.22;;;14.80;96.70;;;;;;4929429;28;20414;-72
2022/11/02 04:14:36;;;;;;;7.50;4.00;;;14.80;96.70;;;;;;4935271;28;20050;-71
2022/11/02 04:16:10;;;;;;;9.70;4.40;;;14.80;96.70;;;;;;4928216;28;20051;-71
2022/11/02 04:21:30;;;;;;;7.25;4.38;;;14.60;96.70;;;;;;4928316;29;20105;-72
2022/11/02 04:26:47;;;;;;;4.78;3.63;;;14.60;96.70;;;;;;4952569;28;20244;-71
2022/11/02 04:29:17;;;;;;;8.07;4.03;;;14.60;96.70;;;;;;4937864;28;20046;-71
2022/11/02 04:31:46;;;;;;;6.25;3.80;;;14.70;96.70;;;;;;4942835;28;20624;-72
2022/11/02 04:34:16;;;;;;;7.15;4.43;;;14.60;96.70;;;;;;4936239;29;20656;-71
2022/11/02 04:36:44;;;;;;;8.98;4.28;;;14.50;96.70;;;;;;4929076;28;20421;-72
2022/11/02 04:39:12;;;;;;;7.18;4.22;;;14.60;96.70;;;;;;4954723;28;20067;-72
2022/11/02 04:41:41;;;;;;;5.47;4.28;;;14.50;96.70;;;;;;4910994;29;20397;-72
2022/11/02 04:44:29;;;;;;;4.78;3.88;;;14.50;96.70;;;;;;4926431;29;20070;-72
2022/11/02 04:47:07;;;;;;;8.63;4.40;;;14.50;96.70;;;;;;4929010;29;20654;-71
2022/11/02 04:49:37;;;;;;;6.03;4.25;;;14.40;96.70;;;;;;4924897;29;21015;-71
2022/11/02 04:52:09;;;;;;;8.32;4.18;;;14.40;96.70;;;;;;4942091;28;20048;-72
2022/11/02 04:54:43;;;;;;;6.55;4.50;;;14.40;96.70;;;;;;4942082;29;20053;-72
2022/11/02 04:57:11;;;;;;;8.18;4.63;;;14.30;96.70;;;;;;4934193;29;20051;-72
2022/11/02 04:59:39;;;;;;;7.70;4.47;;;14.30;96.70;;;;;;4927612;29;20099;-72
2022/11/02 05:02:07;;;;;;;5.90;3.97;;;14.30;96.70;;;;;;4925297;29;20056;-72
2022/11/02 05:04:37;;;;;;;7.13;3.80;;;14.30;96.70;;;;;;4937592;29;20039;-72
2022/11/02 05:07:07;;;;;;;8.25;4.10;;;14.30;96.70;;;;;;4931485;29;20063;-72
2022/11/02 05:09:36;;;;;;;8.57;4.00;;;14.30;96.70;;;;;;4930465;29;20186;-72
2022/11/02 05:12:05;;;;;;;5.35;4.47;;;14.30;96.70;;;;;;4934964;28;20040;-72
2022/11/02 05:14:34;;;;;;;6.45;3.88;;;14.30;96.70;;;;;;4973479;28;20406;-72
2022/11/02 05:17:02;;;;;;;6.20;4.28;;;14.40;96.70;;;;;;4933960;29;20048;-71
2022/11/02 05:19:32;;;;;;;7.60;4.10;;;14.40;96.70;;;;;;4927452;29;20524;-71
2022/11/02 05:22:03;;;;;;;5.13;3.75;;;14.20;96.70;;;;;;4923863;29;20542;-71
2022/11/02 05:24:33;;;;;;;8.10;3.88;;;14.10;96.70;;;;;;4928121;29;20050;-71
2022/11/02 05:27:01;;;;;;;5.13;3.55;;;14.00;96.70;;;;;;4932188;28;20167;-71
2022/11/02 05:29:32;;;;;;;6.53;4.20;;;13.90;96.70;;;;;;4935680;29;20055;-72
2022/11/02 05:32:01;;;;;;;6.70;4.22;;;13.90;96.70;;;;;;4933577;29;20503;-71
2022/11/02 05:34:29;;;;;;;6.53;4.45;;;13.90;96.70;;;;;;4963142;28;20052;-71
2022/11/02 05:36:58;;;;;;;7.80;4.45;;;13.80;96.70;;;;;;4941624;29;20047;-71
2022/11/02 05:39:28;;;;;;;7.40;4.18;;;13.90;96.70;;;;;;4932811;29;20043;-71
2022/11/02 05:41:56;;;;;;;6.10;4.43;;;13.80;96.70;;;;;;4925203;29;20060;-71
2022/11/02 05:44:24;;;;;;;5.35;4.13;;;13.70;96.70;;;;;;4924410;29;20055;-72
2022/11/02 05:46:53;;;;;;;7.03;4.25;;;13.80;96.70;;;;;;4934668;29;20106;-71
2022/11/02 05:49:21;;;;;;;6.20;3.97;;;13.90;96.70;;;;;;4927507;28;20103;-71
2022/11/02 05:51:49;;;;;;;7.65;3.85;;;13.90;96.70;;;;;;4940949;29;20146;-72
2022/11/02 05:54:17;;;;;;;7.28;4.20;;;14.00;96.70;;;;;;4936481;28;20046;-72
2022/11/02 05:56:47;;;;;;;7.60;4.53;;;14.00;96.70;;;;;;4938477;29;20134;-71
2022/11/02 05:59:15;;;;;;;7.93;4.57;;;14.00;96.70;;;;;;4932820;28;20048;-71
2022/11/02 06:01:43;;;;;;;7.00;4.53;;;14.00;96.70;;;;;;4929671;29;20048;-71
2022/11/02 06:04:11;;;;;;;8.00;4.72;;;14.00;96.70;;;;;;4931578;29;20130;-71
2022/11/02 06:06:39;;;;;;;7.90;4.60;;;14.00;96.70;;;;;;4941575;29;20182;-71
2022/11/02 06:09:08;;;;;;;5.70;4.00;;;14.00;96.70;;;;;;4929638;29;20063;-71
2022/11/02 06:11:36;;;;;;;8.25;4.68;;;14.00;96.70;;;;;;4928214;29;20043;-72
2022/11/02 06:14:05;;;;;;;5.65;4.22;;;14.10;96.70;;;;;;4927041;29;20062;-71
2022/11/02 06:16:33;;;;;;;7.93;4.65;;;14.00;96.70;;;;;;4937644;29;20042;-71
2022/11/02 06:19:01;;;;;;;6.72;5.13;;;14.10;96.70;;;;;;4925588;29;20723;-71
2022/11/02 06:21:29;;;;;;;6.13;4.30;;;14.10;96.70;;;;;;4926730;29;20103;-71
2022/11/02 06:23:58;;;;;;;6.05;4.40;;;14.20;96.70;;;;;;4928670;29;20063;-71
2022/11/02 06:26:26;;;;;;;7.95;4.65;;;14.20;96.70;;;;;;4928886;29;20059;-71
2022/11/02 06:28:54;;;;;;;7.50;4.82;;;14.30;96.70;;;;;;4949478;28;20048;-71
2022/11/02 06:31:23;;;;;;;6.70;4.72;;;14.20;96.70;;;;;;4928993;29;20044;-71
2022/11/02 06:33:52;;;;;;;6.80;4.18;;;14.30;96.70;;;;;;4932224;29;20514;-72
2022/11/02 06:36:19;;;;;;;9.10;5.00;;;14.40;96.70;;;;;;4941783;28;20074;-71
2022/11/02 06:38:47;;;;;;;7.90;4.82;;;14.40;96.70;;;;;;4947166;28;20047;-71
2022/11/02 06:41:16;;;;;;;7.25;4.55;;;14.40;96.70;;;;;;4944704;28;20047;-71
2022/11/02 06:43:44;;;;;;;6.95;4.85;;;14.40;96.70;;;;;;4960239;28;20596;-72
2022/11/02 06:46:12;;;;;;;7.55;4.75;;;14.30;96.70;;;;;;4960407;28;20149;-71
2022/11/02 06:48:41;;;;;;;9.63;4.97;;;14.30;96.70;;;;;;4950589;28;20593;-71
2022/11/02 06:51:09;;;;;;;5.95;4.10;;;14.30;96.70;;;;;;4943528;28;20097;-71
2022/11/02 06:53:37;;;;;;;8.70;4.72;;;14.40;96.70;;;;;;4950879;28;20035;-72
2022/11/02 06:56:06;;;;;;;9.90;5.18;;;14.50;96.70;;;;;;4929542;29;20498;-71
2022/11/02 06:58:34;;;;;;;11.07;4.90;;;14.60;96.70;;;;;;4938093;28;20078;-71
2022/11/02 07:01:05;;;;;;;6.60;4.53;;;14.60;96.70;;;;;;4950907;28;20070;-72
2022/11/02 07:03:34;;;;;;;7.30;4.40;;;14.50;96.70;;;;;;4952956;28;20049;-72
2022/11/02 07:06:03;;;;;;;7.53;4.32;;;14.60;96.70;;;;;;4946631;28;20054;-70
2022/11/02 07:08:39;;;;;;;7.15;4.28;;;14.70;96.70;;;;;;4953745;28;20110;-72
2022/11/02 07:11:07;;;;;;;7.13;4.88;;;14.80;96.70;;;;;;4938324;29;20055;-72
2022/11/02 07:13:37;;;;;;;10.68;5.03;;;14.80;96.70;;;;;;4941285;28;20416;-72
2022/11/02 07:16:05;;;;;;;9.13;4.85;;;14.80;96.70;;;;;;4944607;28;20047;-74
2022/11/02 07:18:33;;;;;;;6.05;4.55;;;14.90;96.70;;;;;;4951936;28;20050;-73
2022/11/02 07:21:03;;;;;;;8.07;4.65;;;14.90;96.70;;;;;;4951453;28;20086;-73
2022/11/02 07:23:31;;;;;;;11.25;5.28;;;14.90;96.70;;;;;;4941433;28;20062;-73
2022/11/02 07:26:01;;;;;;;7.05;5.15;;;14.90;96.70;;;;;;4939848;28;20066;-73
2022/11/02 07:28:29;;;;;;;7.60;5.10;;;15.00;96.70;;;;;;4947014;28;20046;-73
2022/11/02 07:30:57;;;;;;;6.18;4.68;;;15.10;96.70;;;;;;4946376;28;20518;-74
2022/11/02 07:33:25;;;;;;;7.72;4.93;;;15.10;96.70;;;;;;4952240;28;20054;-74
2022/11/02 07:35:52;;;;;;;7.28;4.97;;;15.10;96.70;;;;;;4938209;28;20055;-73
2022/11/02 07:38:22;;;;;;;8.02;4.95;;;15.20;96.70;;;;;;4959903;28;20043;-73
2022/11/02 07:40:50;;;;;;;9.05;5.43;;;15.20;96.70;;;;;;4936821;28;20550;-74
2022/11/02 07:43:18;;;;;;;8.65;4.85;;;15.20;96.70;;;;;;4963633;28;20054;-73
2022/11/02 07:46:12;;;;;;;7.07;4.80;;;15.00;96.70;;;;;;4955656;28;20061;-73
2022/11/02 07:48:40;;;;;;;9.90;5.88;;;15.10;96.70;;;;;;4937499;28;20050;-74
2022/11/02 07:51:10;;;;;;;7.13;4.72;;;15.30;96.70;;;;;;4951555;28;20102;-74
2022/11/02 07:53:39;;;;;;;6.78;4.50;;;15.30;96.70;;;;;;4974695;28;20106;-75
2022/11/02 07:56:07;;;;;;;6.75;4.07;;;15.50;96.70;;;;;;4956768;28;20073;-74
2022/11/02 07:58:35;;;;;;;9.75;5.20;;;15.60;96.70;;;;;;4956935;28;20115;-74
2022/11/02 08:01:03;;;;;;;8.02;4.25;;;15.70;96.70;;;;;;4929380;29;20058;-74
2022/11/02 08:03:32;;;;;;;9.25;4.38;;;15.80;96.70;;;;;;4929458;28;20051;-74
2022/11/02 08:06:02;;;;;;;10.63;4.78;;;15.90;96.70;;;;;;4931422;28;20046;-74
2022/11/02 08:08:30;;;;;;;7.07;4.53;;;16.00;96.70;;;;;;4951307;28;20051;-74
2022/11/02 08:11:04;;;;;;;7.70;4.35;;;16.10;96.70;;;;;;4936895;28;20047;-74
2022/11/02 08:13:32;;;;;;;7.88;4.80;;;16.10;96.70;;;;;;4938798;29;20059;-73
2022/11/02 08:16:00;;;;;;;7.82;4.53;;;16.10;96.70;;;;;;4929160;28;20627;-73
2022/11/02 08:18:29;;;;;;;8.98;4.78;;;16.20;96.70;;;;;;4930599;28;20113;-74
2022/11/02 08:20:58;;;;;;;9.77;5.50;;;16.20;96.70;;;;;;4942129;28;20043;-74
2022/11/02 08:23:26;;;;;;;5.57;4.93;;;16.20;96.70;;;;;;4949227;28;20515;-73
2022/11/02 08:25:59;;;;;;;8.68;5.40;;;16.20;96.70;;;;;;4929421;29;20444;-74
2022/11/02 08:28:30;;;;;;;8.73;5.55;;;16.30;96.70;;;;;;4944898;28;20048;-74
2022/11/02 08:30:59;;;;;;;11.05;5.68;;;16.30;96.70;;;;;;4939736;28;20089;-73
2022/11/02 08:33:27;;;;;;;6.47;5.10;;;16.50;96.70;;;;;;4927414;29;20075;-73
2022/11/02 08:36:01;;;;;;;14.38;5.97;;;16.60;96.70;;;;;;4946215;28;20122;-75
2022/11/02 08:38:30;;;;;;;9.27;5.65;;;16.70;96.70;;;;;;4929579;29;20039;-74
2022/11/02 08:40:59;;;;;;;10.55;5.40;;;16.80;96.70;;;;;;4963521;28;20615;-73
2022/11/02 08:43:27;;;;;;;11.02;5.72;;;16.90;96.70;;;;;;4954998;28;20047;-74
2022/11/02 08:45:58;;;;;;;8.15;5.72;;;17.10;96.70;;;;;;4952132;28;20043;-74
2022/11/02 08:48:44;;;;;;;7.43;5.07;;;17.20;96.70;;;;;;4963741;28;20043;-74
2022/11/02 08:51:12;;;;;;;8.13;5.22;;;17.40;96.70;;;;;;4941414;28;20593;-74
2022/11/02 08:53:40;;;;;;;5.97;5.30;;;17.50;96.70;;;;;;4945003;28;20457;-74
2022/11/02 08:56:15;;;;;;;7.82;5.32;;;17.50;96.70;;;;;;4928632;28;20051;-75
2022/11/02 08:58:43;;;;;;;10.20;5.43;;;17.50;96.70;;;;;;4947461;28;20043;-75
2022/11/02 09:01:11;;;;;;;8.43;5.40;;;17.60;96.70;;;;;;4965749;28;20074;-74
2022/11/02 09:03:39;;;;;;;11.70;6.18;;;17.80;96.70;;;;;;4949298;28;20126;-74
2022/11/02 09:06:07;;;;;;;8.75;6.05;;;17.90;96.70;;;;;;4943955;28;20051;-74
2022/11/02 09:08:35;;;;;;;9.02;5.53;;;18.10;96.70;;;;;;4948440;28;20043;-74
2022/11/02 09:11:04;;;;;;;9.13;5.32;;;18.20;96.70;;;;;;4953869;28;20421;-74
2022/11/02 09:13:33;;;;;;;10.80;5.40;;;18.40;96.70;;;;;;4936920;29;20127;-74
2022/11/02 09:16:01;;;;;;;8.75;5.82;;;18.50;96.70;;;;;;4928604;29;20498;-73
2022/11/02 09:18:30;;;;;;;10.88;5.57;;;18.50;96.70;;;;;;4915702;28;20058;-73
2022/11/02 09:21:00;;;;;;;9.88;5.43;;;18.50;96.70;;;;;;4934779;28;20110;-73
2022/11/02 09:23:29;;;;;;;9.48;5.15;;;18.50;96.70;;;;;;4952501;28;20054;-74
2022/11/02 09:25:57;;;;;;;8.48;4.97;;;18.70;96.70;;;;;;4951187;28;20047;-74
2022/11/02 09:28:26;;;;;;;7.45;4.80;;;18.80;96.70;;;;;;4921878;29;20605;-74
2022/11/02 09:30:55;;;;;;;9.07;5.15;;;18.80;96.70;;;;;;4929713;29;20040;-74
2022/11/02 09:33:23;;;;;;;8.95;4.75;;;18.90;96.70;;;;;;4950836;28;20074;-74
2022/11/02 09:35:51;;;;;;;9.80;5.03;;;19.00;96.70;;;;;;4937718;28;20043;-73
2022/11/02 09:38:19;;;;;;;8.40;4.68;;;19.10;96.70;;;;;;4946634;28;20051;-73
2022/11/02 09:40:59;;;;;;;13.05;5.00;;;19.00;96.70;;;;;;4919506;28;20497;-74
2022/11/02 09:43:39;;;;;;;8.23;5.18;;;19.10;96.70;;;;;;4947762;28;20050;-73
2022/11/02 09:46:11;;;;;;;9.15;5.00;;;19.00;96.70;;;;;;4956883;28;20105;-73
2022/11/02 09:48:42;;;;;;;9.38;5.07;;;19.10;96.70;;;;;;4931762;29;20050;-73
2022/11/02 09:51:15;;;;;;;5.70;4.28;;;19.10;96.70;;;;;;4937941;28;20062;-74
2022/11/02 09:53:52;;;;;;;7.55;5.40;;;19.10;96.70;;;;;;4948382;28;20043;-73
2022/11/02 09:56:20;;;;;;;7.07;4.65;;;19.20;96.70;;;;;;4918313;28;20055;-74
2022/11/02 09:58:59;;;;;;;9.70;5.28;;;19.20;96.70;;;;;;4938853;28;20035;-73
2022/11/02 10:01:44;;;;;;;8.45;5.40;;;19.20;96.70;;;;;;4943917;28;20556;-74
2022/11/02 10:04:34;;;;;;;9.98;5.45;;;19.30;96.70;;;;;;4929939;28;20509;-74
2022/11/02 10:07:10;;;;;;;35.45;7.32;;;19.40;96.70;;;;;;4944970;28;20105;-74
2022/11/02 10:09:45;;;;;;;12.23;5.72;;;19.60;96.70;;;;;;4930770;28;20130;-73
2022/11/02 10:12:20;;;;;;;8.32;4.95;;;19.70;96.70;;;;;;4930729;28;20055;-74
2022/11/02 10:14:55;;;;;;;9.75;5.47;;;19.80;96.70;;;;;;4949100;28;20055;-73
2022/11/02 10:17:29;;;;;;;8.55;4.97;;;20.10;96.70;;;;;;4944311;29;20043;-74
2022/11/02 10:20:00;;;;;;;8.48;5.15;;;20.20;96.70;;;;;;4936871;28;20050;-73
2022/11/02 10:22:34;;;;;;;9.38;4.68;;;20.50;96.70;;;;;;4945239;28;20093;-74
2022/11/02 10:25:04;;;;;;;10.98;5.25;;;20.50;96.70;;;;;;4948655;28;20047;-73
2022/11/02 10:27:37;;;;;;;11.98;5.57;;;20.60;96.70;;;;;;4930544;29;20051;-73
2022/11/02 10:30:10;;;;;;;8.95;5.40;;;20.60;96.70;;;;;;4961861;28;20109;-74
2022/11/02 10:32:41;;;;;;;9.40;5.38;;;20.60;96.70;;;;;;4947992;28;20053;-73
2022/11/02 10:35:17;;;;;;;8.77;5.20;;;20.50;96.70;;;;;;4931061;29;20142;-74
2022/11/02 10:38:16;;;;;;;7.63;4.00;;;20.60;96.70;;;;;;4954785;28;20056;-74
2022/11/02 10:41:05;;;;;;;5.40;3.75;;;20.70;96.70;;;;;;4936792;28;20137;-74
2022/11/02 10:43:45;;;;;;;10.15;4.43;;;20.80;96.70;;;;;;4954308;28;20047;-73
2022/11/02 10:46:41;;;;;;;5.53;3.35;;;20.90;96.70;;;;;;4941070;28;20704;-74
2022/11/02 10:49:18;;;;;;;6.97;3.30;;;20.90;96.70;;;;;;4945360;28;20047;-74
2022/11/02 10:51:46;;;;;;;4.32;3.10;;;21.00;96.70;;;;;;4925508;28;20130;-73
2022/11/02 10:54:15;;;;;;;9.13;3.45;;;21.10;96.70;;;;;;4953149;28;20050;-74
2022/11/02 10:56:52;;;;;;;6.03;3.03;;;21.30;96.70;;;;;;4940249;29;20086;-74
2022/11/02 10:59:25;;;;;;;4.60;2.97;;;21.40;96.70;;;;;;4956524;28;20035;-75
2022/11/02 11:02:14;;;;;;;4.60;3.17;;;21.60;96.70;;;;;;4933619;28;20043;-74
2022/11/02 11:04:44;;;;;;;5.28;2.78;;;21.80;96.70;;;;;;4929232;28;20769;-74
2022/11/02 11:07:16;;;;;;;7.07;2.63;;;21.90;96.70;;;;;;4957393;28;20101;-74
2022/11/02 11:09:52;;;;;;;5.47;2.35;;;22.00;96.70;;;;;;4970846;28;20070;-74
2022/11/02 11:12:27;;;;;;;6.70;2.53;;;22.10;96.70;;;;;;4935254;28;20133;-74
2022/11/02 11:14:57;;;;;;;5.70;3.05;;;22.20;96.70;;;;;;4928727;29;20126;-74
2022/11/02 11:17:46;;;;;;;8.60;2.42;;;22.30;96.70;;;;;;4929833;28;20429;-74
2022/11/02 11:20:37;;;;;;;4.68;2.90;;;22.50;96.70;;;;;;4936482;29;20507;-75
2022/11/02 11:23:24;;;;;;;4.68;2.45;;;22.60;96.70;;;;;;4941644;28;20055;-74
2022/11/02 11:26:00;;;;;;;6.13;2.85;;;22.60;96.70;;;;;;4929665;28;20043;-74
2022/11/02 11:28:31;;;;;;;4.18;2.40;;;22.80;96.70;;;;;;4947212;28;20578;-74
2022/11/02 11:31:15;;;;;;;5.65;2.28;;;23.00;96.70;;;;;;4946354;28;20058;-74
2022/11/02 11:33:49;;;;;;;4.13;1.90;;;23.20;96.70;;;;;;4939465;28;20097;-74
2022/11/02 11:36:29;;;;;;;3.15;2.00;;;23.40;96.70;;;;;;4929862;29;20055;-74
2022/11/02 11:38:59;;;;;;;3.47;2.03;;;23.40;96.70;;;;;;4929171;29;20047;-74
2022/11/02 11:41:30;;;;;;;3.10;2.30;;;23.30;96.70;;;;;;4925693;29;20087;-74
2022/11/02 11:44:00;;;;;;;3.13;1.88;;;23.20;96.70;;;;;;4926989;29;20510;-74
2022/11/02 11:46:40;;;;;;;5.78;2.53;;;23.10;96.70;;;;;;4927895;29;20047;-75
2022/11/02 11:49:20;;;;;;;4.13;2.10;;;23.20;96.70;;;;;;4941734;28;20057;-73
2022/11/02 11:52:04;;;;;;;3.28;1.98;;;23.40;96.70;;;;;;4919509;29;20051;-75
2022/11/02 11:54:33;;;;;;;4.80;2.20;;;23.30;96.70;;;;;;4924528;29;20510;-74
2022/11/02 11:57:22;;;;;;;6.25;2.30;;;23.20;96.70;;;;;;4942758;28;20051;-74
2022/11/02 11:59:51;;;;;;;5.50;2.05;;;23.20;96.70;;;;;;4925477;29;20106;-74
2022/11/02 12:02:25;;;;;;;5.82;2.22;;;23.10;96.70;;;;;;4931501;29;20219;-74
2022/11/02 12:04:59;;;;;;;3.95;1.98;;;23.10;96.70;;;;;;4936941;28;20094;-73
2022/11/02 12:07:58;;;;;;;5.88;2.20;;;23.00;96.70;;;;;;4945374;29;20459;-73
2022/11/02 12:10:50;;;;;;;4.05;2.25;;;23.00;96.70;;;;;;4938074;29;20141;-75
2022/11/02 12:13:35;;;;;;;3.58;2.40;;;23.00;96.70;;;;;;4927103;29;20659;-73
2022/11/02 12:16:14;;;;;;;7.40;2.78;;;23.00;96.70;;;;;;4929210;29;20055;-74
2022/11/02 12:18:59;;;;;;;3.88;2.30;;;23.00;96.70;;;;;;4935352;29;20532;-73
2022/11/02 12:21:49;;;;;;;4.55;2.58;;;23.10;96.70;;;;;;4938943;29;20055;-73
2022/11/02 12:24:41;;;;;;;4.63;2.30;;;23.30;96.70;;;;;;4929982;29;20457;-72
2022/11/02 12:27:26;;;;;;;5.22;3.40;;;23.50;96.70;;;;;;4906168;29;20052;-72
2022/11/02 12:30:09;;;;;;;7.20;3.40;;;23.70;96.70;;;;;;4956661;28;20043;-72
2022/11/02 12:32:56;;;;;;;6.03;2.67;;;23.80;96.70;;;;;;4910846;29;20055;-72
2022/11/02 12:35:30;;;;;;;;;;;23.80;96.70;;;;;;4935483;29;20533;-70
2022/11/02 12:38:12;;;;;;;5.43;2.65;;;23.90;96.70;;;;;;4933636;29;19933;-72
2022/11/02 12:40:53;;;;;;;8.02;2.83;;;23.90;96.70;;;;;;4935226;29;20070;-72
2022/11/02 12:43:39;;;;;;;4.88;2.80;;;24.00;96.70;;;;;;4947683;28;20455;-72
2022/11/02 12:46:32;;;;;;;;;;;24.00;96.70;;;;;;4944955;28;20154;-71
2022/11/02 12:49:34;;;;;;;6.15;3.05;;;24.00;96.70;;;;;;4934774;28;19926;-71
2022/11/02 12:52:12;;;;;;;6.57;2.75;;;23.90;96.70;;;;;;4927310;28;20070;-72
2022/11/02 12:54:44;;;;;;;4.65;2.45;;;23.90;96.70;;;;;;4945576;28;20082;-72
2022/11/02 12:57:17;;;;;;;6.15;3.10;;;24.00;96.70;;;;;;4912174;29;20078;-72
2022/11/02 12:59:53;;;;;;;4.22;2.25;;;24.00;96.70;;;;;;4968693;28;20600;-72
2022/11/02 13:02:28;;;;;;;3.65;2.58;;;24.10;96.70;;;;;;4927457;29;20050;-72
2022/11/02 13:05:02;;;;;;;5.57;2.70;;;24.10;96.70;;;;;;4958248;28;20043;-73
2022/11/02 13:07:36;;;;;;;3.47;2.30;;;24.20;96.70;;;;;;4955855;28;20046;-74
2022/11/02 13:10:06;;;;;;;5.03;2.00;;;24.20;96.70;;;;;;4926494;28;20083;-72
2022/11/02 13:12:37;;;;;;;4.28;2.03;;;24.30;96.70;;;;;;4954321;28;20057;-72
2022/11/02 13:15:12;;;;;;;5.55;2.17;;;24.30;96.70;;;;;;4964864;28;20066;-73
2022/11/02 13:17:44;;;;;;;8.48;2.50;;;24.30;96.70;;;;;;4935842;28;20106;-73
2022/11/02 13:20:17;;;;;;;5.55;2.88;;;24.20;96.70;;;;;;4938876;28;20043;-72
2022/11/02 13:22:53;;;;;;;4.57;2.35;;;24.20;96.70;;;;;;4958653;28;20523;-73
2022/11/02 13:25:26;;;;;;;4.38;2.38;;;24.20;96.70;;;;;;4943177;29;20057;-74